TAF for South-East England - 19 Feb 2018 - 0152 UTC - RocketRoute WX - rrwx.com
EGKB   EGBB 182259Z 1900/1924 19005KT 6000 BKN005 TEMPO 1900/1912 4000 RADZ BKN003 PROB30 1900/1910 0300 FG BKN001 BECMG 1906/1909 31010KT BECMG 1912/1915 9999 BKN012 BECMG 1915/1918 BKN015 EGHH 182001Z 1821/1906 14005KT 8000 BKN007 TEMPO 1821/1906 2500 -RADZ BR BKN003 PROB40 1821/1906 0200 FG BKN001 EGVN 182244Z 1900/1924 21003KT 9999 BKN008 BECMG 1900/1902 BKN006 TEMPO 1900/1912 4000 RADZ BKN004 PROB40 TEMPO 1900/1910 1200 DZ BKN002 BECMG 1912/1914 31015KT SCT010 PROB30 1916/1924 FEW010 SCT030 EGSC   EGFF AMD 190003Z 1900/1924 28008KT 0300 FG BKN001 TEMPO 1900/1902 1000 RADZ TEMPO 1902/1909 8000 NSW SCT001 BECMG 1909/1912 9999 NSW SCT010 EGBE   EGTC   EGYD   EGNX AMD 190034Z 1900/1924 19005KT 8000 RA BKN015 BECMG 1900/1903 4000 -RADZ BKN004 PROB30 1900/1910 0300 FG BKN001 BECMG 1906/1909 29010KT BECMG 1909/1912 9999 NSW BKN008 BECMG 1912/1915 BKN012 BECMG 1915/1918 SCT015 EGVA   EGLF   EGBJ   EGSD   EGNR   EGNJ 182002Z 1821/1906 18006KT 7000 FEW012 BKN022 TEMPO 1821/1824 5000 BR BECMG 1900/1903 5000 -RADZ BR BKN008 TEMPO 1903/1906 1200 BKN002 EGGW AMD 190004Z 1900/1924 16005KT 6000 BKN004 BECMG 1901/1904 0300 -RADZ FG OVC000 TEMPO 1904/1924 3000 RADZ BKN003 BECMG 1910/1913 5000 -RADZ BKN005 BECMG 1915/1918 33010KT EGLC   EGKK 182300Z 1900/2006 18003KT 4000 -DZ BR BKN006 PROB30 TEMPO 1900/1910 0300 DZ FG BKN001 TEMPO 1910/2006 RADZ BKN003 BECMG 1912/1915 33010KT EGLL AMD 190135Z 1901/2006 18004KT 7000 BKN010 BECMG 1901/1903 BKN006 TEMPO 1901/1912 2000 RADZ BR BKN003 PROB30 TEMPO 1901/1908 1200 PROB30 TEMPO 1912/2006 3500 RADZ BKN004 EGSS 182307Z 1900/2006 15004KT 9999 OVC025 BECMG 1900/1903 5000 -RADZ BKN005 TEMPO 1903/1924 2000 RADZ BKN002 PROB40 1904/1912 0300 FG OVC000 BECMG 1916/1919 33010KT PROB40 1921/2006 0300 FG BKN001 EGMD AMD 190054Z 1900/1909 21008KT 9999 BKN008 TEMPO 1900/1903 4000 BR BKN003 BECMG 1903/1906 2000 -DZ BR BKN002 EGMH   EGYM   EGSH 181953Z 1821/1906 17008KT 9999 SCT030 PROB30 1822/1824 4000 BR EGOS   EGKA   EGHI   EGMC 182307Z 1900/1909 15005KT 9999 FEW035 BECMG 1900/1903 BKN009 TEMPO 1904/1909 3000 RADZ BKN004 EGOV   EGXW 182224Z 1900/1918 18008KT 9999 BKN025 BECMG 1900/1902 5000 -RADZ BKN008 BECMG 1902/1905 BKN003 TEMPO 1902/1918 3000 RADZ PROB30 1904/1918 0500 FG BKN000 EGUW   EGXT  

RocketRoute WX - rrwx.com weather for pilots